Time;durP1;ratioP1;P1;durP2;ratioP2;P2;SDS_P1;SDS_P2;PMS_P1;PMS_P2;Temp;Humidity;BMP_temperature;BMP_pressure;BME280_temperature;BME280_humidity;BME280_pressure;Samples;Min_cycle;Max_cycle;Signal;HPM_P1;HPM_P2
2021/03/12 00:02:25;;;;;;;1.96;0.38;;;;;;;5.45;75.42;98710.25;2007440;78;23975;-71
2021/03/12 00:05:27;;;;;;;1.08;0.40;;;;;;;5.41;75.54;98714.53;2008562;80;20390;-71
2021/03/12 00:08:31;;;;;;;2.49;0.39;;;;;;;5.35;75.74;98719.63;2008829;80;21011;-72
2021/03/12 00:11:33;;;;;;;2.36;0.47;;;;;;;5.31;76.31;98728.19;2008757;80;20473;-72
2021/03/12 00:14:34;;;;;;;3.53;0.30;;;;;;;5.30;76.91;98725.59;2008450;80;21019;-71
2021/03/12 00:17:36;;;;;;;2.40;0.49;;;;;;;5.33;77.11;98735.91;2008084;78;20383;-71
2021/03/12 00:20:40;;;;;;;1.41;0.30;;;;;;;5.31;76.99;98750.50;2009305;80;20366;-71
2021/03/12 00:23:42;;;;;;;2.47;0.40;;;;;;;5.29;77.38;98742.75;2009037;80;20335;-72
2021/03/12 00:26:44;;;;;;;1.24;0.50;;;;;;;5.31;77.83;98753.06;2008998;80;20338;-71
2021/03/12 00:29:46;;;;;;;1.99;0.65;;;;;;;5.28;78.42;98759.06;2009628;80;20372;-71
2021/03/12 00:32:48;;;;;;;1.54;0.70;;;;;;;5.29;78.51;98767.63;2056043;70;46769;-70
2021/03/12 00:35:50;;;;;;;1.58;0.49;;;;;;;5.29;78.31;98763.34;2025241;79;20330;-71
2021/03/12 00:38:52;;;;;;;4.45;1.25;;;;;;;5.28;78.43;98781.34;2025093;79;20352;-71
2021/03/12 00:41:53;;;;;;;2.11;0.50;;;;;;;5.29;78.30;98780.50;2025020;79;20303;-71
2021/03/12 00:44:55;;;;;;;2.16;0.40;;;;;;;5.28;78.14;98789.94;2028576;79;20360;-71
2021/03/12 00:47:57;;;;;;;4.75;1.17;;;;;;;5.33;77.57;98792.53;2025287;77;21799;-72
2021/03/12 00:50:58;;;;;;;4.31;1.35;;;;;;;5.39;76.58;98795.19;2024646;79;20350;-71
2021/03/12 00:54:00;;;;;;;2.26;0.40;;;;;;;5.41;75.55;98796.91;2024827;79;20299;-71
2021/03/12 00:57:02;;;;;;;2.71;0.46;;;;;;;5.42;74.91;98798.63;2024888;79;20354;-71
2021/03/12 01:00:05;;;;;;;3.28;0.77;;;;;;;5.44;74.88;98799.50;2024282;79;20299;-71
2021/03/12 01:03:09;;;;;;;2.61;0.60;;;;;;;5.44;74.70;98798.63;2024564;77;22353;-71
2021/03/12 01:06:11;;;;;;;2.59;0.57;;;;;;;5.46;74.25;98815.81;2025615;79;20397;-71
2021/03/12 01:09:12;;;;;;;3.90;0.51;;;;;;;5.49;73.74;98816.69;2024825;79;20417;-71
2021/03/12 01:12:15;;;;;;;1.81;0.31;;;;;;;5.49;73.71;98827.84;2025005;79;20335;-71
2021/03/12 01:15:19;;;;;;;5.18;0.80;;;;;;;5.48;73.51;98823.53;2023432;77;20303;-71
2021/03/12 01:18:20;;;;;;;2.55;0.50;;;;;;;5.45;73.33;98821.81;2025094;79;20303;-71
2021/03/12 01:21:22;;;;;;;6.75;0.68;;;;;;;5.42;73.23;98819.22;2024926;79;20307;-71
2021/03/12 01:24:23;;;;;;;3.91;0.57;;;;;;;5.37;73.84;98822.59;2024596;79;20299;-71
2021/03/12 01:27:25;;;;;;;1.80;0.49;;;;;;;5.34;74.02;98823.44;2025094;79;20355;-71
2021/03/12 01:30:34;;;;;;;3.76;0.47;;;;;;;5.36;74.29;98820.88;2023609;77;20311;-71
2021/03/12 01:33:36;;;;;;;2.34;0.50;;;;;;;5.35;74.60;98821.72;2024246;79;20839;-70
2021/03/12 01:36:38;;;;;;;1.31;0.64;;;;;;;5.33;74.56;98826.84;2025168;79;20216;-71
2021/03/12 01:39:39;;;;;;;3.41;1.05;;;;;;;5.27;74.53;98826.81;2024513;79;20319;-71
2021/03/12 01:42:41;;;;;;;1.44;0.50;;;;;;;5.26;74.58;98824.25;2024461;79;20325;-71
2021/03/12 01:45:45;;;;;;;4.11;0.54;;;;;;;5.24;74.76;98831.09;2024379;78;24857;-71
2021/03/12 01:48:47;;;;;;;3.94;0.40;;;;;;;5.20;74.68;98837.03;2024829;79;20941;-71
2021/03/12 01:51:48;;;;;;;1.55;0.40;;;;;;;5.20;75.09;98824.19;2025546;79;20354;-71
2021/03/12 01:54:50;;;;;;;2.11;0.51;;;;;;;5.15;75.47;98837.00;2024619;79;21243;-70
2021/03/12 01:57:52;;;;;;;3.79;0.56;;;;;;;5.14;75.67;98835.28;2025058;79;20492;-70
2021/03/12 02:00:54;;;;;;;2.16;0.50;;;;;;;5.14;75.92;98850.72;2024029;77;20784;-70
2021/03/12 02:03:56;;;;;;;2.96;0.40;;;;;;;5.16;76.21;98855.03;2024753;79;20311;-71
2021/03/12 02:06:57;;;;;;;3.69;0.65;;;;;;;5.21;76.12;98849.09;2024436;79;20828;-72
2021/03/12 02:09:59;;;;;;;1.83;0.52;;;;;;;5.23;76.27;98866.25;2024812;79;21069;-71
2021/03/12 02:13:31;;;;;;;2.65;1.33;;;;;;;5.28;75.82;98866.28;2024716;79;20326;-70
2021/03/12 02:16:47;;;;;;;1.73;0.50;;;;;;;5.27;76.08;98852.56;2024262;77;20348;-71
2021/03/12 02:20:05;;;;;;;3.46;0.55;;;;;;;5.23;77.36;98862.84;2024911;79;20319;-70
2021/03/12 02:23:16;;;;;;;1.00;0.40;;;;;;;5.14;78.58;98872.19;2025788;79;20327;-70
2021/03/12 02:26:30;;;;;;;1.40;0.43;;;;;;;5.08;78.90;98871.28;2024548;79;20352;-70
2021/03/12 02:29:35;;;;;;;2.36;0.49;;;;;;;4.96;79.49;98884.00;2025018;79;20779;-70
2021/03/12 02:32:43;;;;;;;1.29;0.30;;;;;;;4.84;80.14;98877.88;2024291;77;20362;-70
2021/03/12 02:35:46;;;;;;;3.36;0.51;;;;;;;4.78;80.24;98882.97;2029647;79;20317;-70
2021/03/12 02:38:50;;;;;;;2.55;0.56;;;;;;;4.77;80.30;98878.69;2029914;79;20207;-70
2021/03/12 02:41:55;;;;;;;2.71;0.80;;;;;;;4.76;80.46;98871.81;2029540;79;20865;-70
2021/03/12 02:45:00;;;;;;;2.03;0.51;;;;;;;4.77;80.44;98881.25;2028871;79;20321;-70
2021/03/12 02:48:01;;;;;;;2.72;0.94;;;;;;;4.79;80.71;98889.84;2028638;77;22511;-70
2021/03/12 02:51:05;;;;;;;2.71;0.68;;;;;;;4.79;81.10;98889.00;2030274;79;20721;-70
2021/03/12 02:54:08;;;;;;;1.40;0.50;;;;;;;4.78;81.24;98884.69;2029360;79;20309;-70
2021/03/12 02:57:11;;;;;;;1.92;0.54;;;;;;;4.81;81.19;98883.00;2030188;79;20400;-70
2021/03/12 03:00:14;;;;;;;1.75;0.60;;;;;;;4.84;81.07;98879.59;2029855;77;20766;-70
2021/03/12 03:03:17;;;;;;;2.00;0.59;;;;;;;4.83;80.98;98889.03;2031286;79;20344;-70
2021/03/12 03:06:19;;;;;;;5.76;1.91;;;;;;;4.85;80.47;98892.50;2031130;79;20321;-70
2021/03/12 03:09:24;;;;;;;2.65;0.47;;;;;;;4.88;80.19;98890.81;2031024;79;20294;-69
2021/03/12 03:12:27;;;;;;;5.14;0.60;;;;;;;4.88;80.16;98885.66;2031212;79;20298;-70
2021/03/12 03:15:30;;;;;;;3.44;0.54;;;;;;;4.88;79.47;98890.81;2030090;77;20895;-69
2021/03/12 03:18:41;;;;;;;4.25;1.15;;;;;;;4.94;79.15;98890.84;2031626;79;20361;-70
2021/03/12 03:21:45;;;;;;;10.99;3.16;;;;;;;4.95;78.66;98890.00;2031044;79;20339;-70
2021/03/12 03:24:47;;;;;;;2.66;0.60;;;;;;;4.98;78.46;98892.59;2030836;79;20314;-70
2021/03/12 03:27:49;;;;;;;2.94;0.50;;;;;;;5.02;78.05;98895.22;2031053;79;20870;-70
2021/03/12 03:30:51;;;;;;;5.53;0.80;;;;;;;5.01;78.01;98908.06;2030599;77;21466;-69
2021/03/12 03:33:53;;;;;;;2.58;0.60;;;;;;;5.01;77.98;98906.34;2030710;79;20365;-70
2021/03/12 03:36:55;;;;;;;2.90;0.70;;;;;;;5.03;77.39;98906.41;2030612;79;20653;-69
2021/03/12 03:39:56;;;;;;;3.85;0.86;;;;;;;5.02;77.66;98907.22;2030546;79;20317;-69
2021/03/12 03:43:02;;;;;;;2.91;0.76;;;;;;;5.03;77.13;98921.84;2031879;79;21297;-70
2021/03/12 03:46:06;;;;;;;3.08;0.60;;;;;;;5.03;76.96;98925.28;2030143;77;21468;-70
2021/03/12 03:49:13;;;;;;;4.24;0.70;;;;;;;5.05;76.64;98935.56;2031604;79;20903;-70
2021/03/12 03:52:16;;;;;;;4.51;1.06;;;;;;;5.07;76.15;98926.16;2030376;79;20302;-70
2021/03/12 03:55:23;;;;;;;2.89;0.76;;;;;;;5.08;75.84;98931.31;2030767;79;21002;-70
2021/03/12 03:58:26;;;;;;;2.76;0.55;;;;;;;5.12;75.71;98934.78;2031774;79;20637;-70
2021/03/12 04:01:28;;;;;;;2.59;0.50;;;;;;;5.13;75.79;98926.22;2030450;77;21434;-70
2021/03/12 04:04:30;;;;;;;2.39;0.59;;;;;;;5.17;75.56;98943.41;2031044;79;21321;-70
2021/03/12 04:07:33;;;;;;;3.38;0.66;;;;;;;5.17;75.47;98940.81;2030504;79;20366;-72
2021/03/12 04:10:36;;;;;;;4.04;0.54;;;;;;;5.17;74.91;98948.53;2030639;79;20848;-70
2021/03/12 04:13:38;;;;;;;5.54;2.19;;;;;;;5.18;75.17;98949.41;2029815;79;20330;-70
2021/03/12 04:16:40;;;;;;;4.81;0.79;;;;;;;5.18;75.11;98951.97;2029909;77;21662;-70
2021/03/12 04:19:46;;;;;;;4.79;1.05;;;;;;;5.18;74.14;98950.25;2030535;79;20329;-70
2021/03/12 04:22:48;;;;;;;2.69;0.70;;;;;;;5.21;74.33;98957.19;2030259;79;20347;-70
2021/03/12 04:25:50;;;;;;;5.00;0.68;;;;;;;5.22;74.12;98951.19;2030177;79;20327;-70
2021/03/12 04:28:52;;;;;;;3.90;0.57;;;;;;;5.22;74.15;98956.34;2030227;79;20438;-71
2021/03/12 04:31:54;;;;;;;3.53;0.55;;;;;;;5.23;73.93;98960.63;2029089;77;21084;-70
2021/03/12 04:34:56;;;;;;;1.76;0.65;;;;;;;5.22;73.71;98964.91;2030237;79;20406;-70
2021/03/12 04:37:58;;;;;;;2.70;0.60;;;;;;;5.22;73.59;98964.91;2030435;79;20348;-70
2021/03/12 04:41:02;;;;;;;4.55;0.61;;;;;;;5.20;73.39;98964.00;2033597;79;20327;-70
2021/03/12 04:44:05;;;;;;;3.19;1.13;;;;;;;5.23;73.25;98961.50;2030516;79;20309;-70
2021/03/12 04:47:07;;;;;;;1.41;0.50;;;;;;;5.23;73.57;98951.19;2030194;77;20325;-70
2021/03/12 04:50:11;;;;;;;4.89;0.50;;;;;;;5.22;72.92;98958.91;2030118;79;20332;-70
2021/03/12 04:53:12;;;;;;;1.77;0.56;;;;;;;5.23;72.66;98955.47;2030507;79;21043;-70
2021/03/12 04:56:14;;;;;;;5.39;0.55;;;;;;;5.25;72.62;98954.66;2030019;79;20343;-70
2021/03/12 04:59:16;;;;;;;2.63;0.45;;;;;;;5.24;72.91;98947.78;2030145;79;20370;-70
2021/03/12 05:02:18;;;;;;;1.81;0.40;;;;;;;5.25;72.83;98958.94;2029121;77;22751;-70
2021/03/12 05:05:22;;;;;;;4.55;0.86;;;;;;;5.23;73.54;98960.63;2029838;79;20365;-70
2021/03/12 05:08:25;;;;;;;3.09;0.61;;;;;;;5.22;72.93;98967.50;2030154;79;20352;-71
2021/03/12 05:11:26;;;;;;;2.80;0.56;;;;;;;5.24;72.61;98970.06;2030063;79;20869;-72
2021/03/12 05:14:28;;;;;;;2.20;0.49;;;;;;;5.26;72.51;98976.09;2029884;79;21181;-69
2021/03/12 05:17:30;;;;;;;1.49;0.85;;;;;;;5.27;72.31;98976.09;2029390;77;20375;-71
2021/03/12 05:20:31;;;;;;;2.59;0.63;;;;;;;5.27;72.29;98976.09;2029497;79;20357;-71
2021/03/12 05:23:33;;;;;;;4.94;0.40;;;;;;;5.29;72.61;98976.13;2033232;79;20887;-70
2021/03/12 05:26:34;;;;;;;4.68;0.96;;;;;;;5.30;72.63;98985.56;2030499;79;20337;-72
2021/03/12 05:29:36;;;;;;;1.17;0.40;;;;;;;5.26;72.99;98979.53;2030143;79;20916;-71
2021/03/12 05:32:40;;;;;;;7.80;1.69;;;;;;;5.27;72.98;98977.81;2029442;77;21095;-71
2021/03/12 05:35:42;;;;;;;3.38;0.54;;;;;;;5.24;73.33;98981.22;2029803;79;20353;-71
2021/03/12 05:38:43;;;;;;;3.83;0.76;;;;;;;5.24;73.11;98980.38;2030633;79;20352;-71
2021/03/12 05:41:46;;;;;;;4.81;1.34;;;;;;;5.23;72.77;98981.22;2029976;79;20340;-71
2021/03/12 05:44:48;;;;;;;1.35;0.45;;;;;;;5.23;73.11;98989.81;2030166;79;21076;-71
2021/03/12 05:47:50;;;;;;;4.69;0.46;;;;;;;5.26;72.86;98989.81;2029194;77;20947;-70
2021/03/12 05:50:52;;;;;;;3.74;0.69;;;;;;;5.25;72.99;98997.53;2030379;79;20637;-71
2021/03/12 05:53:54;;;;;;;3.76;0.76;;;;;;;5.26;73.03;98996.69;2030450;79;20314;-70
2021/03/12 05:56:57;;;;;;;2.90;0.60;;;;;;;5.27;72.90;98999.28;2029384;79;20343;-71
2021/03/12 05:59:59;;;;;;;3.92;1.58;;;;;;;5.27;73.25;98999.28;2030157;79;20963;-71
2021/03/12 06:03:02;;;;;;;5.26;0.66;;;;;;;5.26;73.70;99002.69;2023614;77;21827;-71
2021/03/12 06:06:04;;;;;;;4.49;0.70;;;;;;;5.27;73.69;99007.00;2024249;79;20799;-71
2021/03/12 06:09:05;;;;;;;3.46;1.19;;;;;;;5.27;73.72;98999.28;2024448;79;20826;-71
2021/03/12 06:12:08;;;;;;;1.79;0.65;;;;;;;5.26;74.20;99007.84;2024794;79;20364;-71
2021/03/12 06:15:11;;;;;;;4.13;0.52;;;;;;;5.26;74.36;99004.41;2024874;79;20345;-71
2021/03/12 06:18:15;;;;;;;6.61;1.71;;;;;;;5.24;74.61;99001.81;2029474;78;21695;-71
2021/03/12 06:21:27;;;;;;;5.19;0.64;;;;;;;5.24;74.64;99001.81;2030216;79;20890;-71
2021/03/12 06:24:30;;;;;;;1.96;0.52;;;;;;;5.24;74.28;99001.81;2030052;79;20351;-71
2021/03/12 06:27:32;;;;;;;2.79;0.68;;;;;;;5.23;74.37;98994.94;2029974;79;20313;-71
2021/03/12 06:30:34;;;;;;;3.36;0.79;;;;;;;5.25;74.36;98988.09;2027971;77;21651;-71
2021/03/12 06:33:35;;;;;;;4.26;0.86;;;;;;;5.28;74.04;98995.84;2024118;79;20342;-70
2021/03/12 06:36:37;;;;;;;4.51;1.45;;;;;;;5.30;73.74;98996.72;2022879;79;20744;-70
2021/03/12 06:39:40;;;;;;;5.04;0.80;;;;;;;5.33;73.38;99001.91;2023477;79;20321;-71
2021/03/12 06:43:09;;;;;;;3.01;0.74;;;;;;;5.38;73.05;98994.22;2022396;79;20315;-71
2021/03/12 06:46:11;;;;;;;4.43;0.84;;;;;;;5.44;72.66;98994.28;2020923;77;20330;-71
2021/03/12 06:49:13;;;;;;;3.92;0.84;;;;;;;5.49;72.59;98996.91;2023097;79;20372;-71
2021/03/12 06:52:15;;;;;;;6.03;1.10;;;;;;;5.55;72.80;98999.53;2022848;79;20490;-71
2021/03/12 06:55:16;;;;;;;4.38;1.02;;;;;;;5.58;72.80;99003.03;2022822;79;20335;-74
2021/03/12 06:58:19;;;;;;;4.49;0.84;;;;;;;5.63;72.57;99009.06;2022530;79;20327;-74
2021/03/12 07:01:21;;;;;;;3.54;0.60;;;;;;;5.65;72.60;99006.50;2023984;77;20884;-72
2021/03/12 07:04:25;;;;;;;6.21;0.81;;;;;;;5.68;72.05;99003.94;2028003;79;20762;-71
2021/03/12 07:07:36;;;;;;;4.95;1.05;;;;;;;5.73;71.62;99004.84;2027667;79;20325;-73
2021/03/12 07:10:37;;;;;;;3.13;0.71;;;;;;;5.75;71.68;99014.34;2027878;79;20317;-72
2021/03/12 07:13:40;;;;;;;3.89;0.70;;;;;;;5.81;71.07;99005.78;2027762;79;20391;-74
2021/03/12 07:16:42;;;;;;;2.83;0.74;;;;;;;5.89;70.37;99006.69;2026980;77;22243;-75
2021/03/12 07:19:44;;;;;;;6.16;1.15;;;;;;;5.97;70.70;99012.81;2027846;79;20367;-73
2021/03/12 07:22:47;;;;;;;5.45;0.95;;;;;;;6.03;70.13;99012.88;2027821;79;20319;-72
2021/03/12 07:25:50;;;;;;;6.10;1.25;;;;;;;6.12;69.91;99012.09;2027467;79;21235;-73
2021/03/12 07:28:59;;;;;;;5.11;0.90;;;;;;;6.20;69.59;99014.69;2027225;79;20330;-72
2021/03/12 07:32:02;;;;;;;;;;;;;;;6.25;68.65;99020.75;2026813;76;23606;-73
2021/03/12 07:35:05;;;;;;;4.45;0.76;;;;;;;6.28;68.57;99021.66;2027806;79;20098;-72
2021/03/12 07:38:10;;;;;;;8.45;0.84;;;;;;;6.29;68.87;99025.97;2029333;79;20173;-72
2021/03/12 07:41:12;;;;;;;3.64;1.15;;;;;;;6.45;68.63;99029.47;2027799;79;20305;-72
2021/03/12 07:44:16;;;;;;;7.94;1.60;;;;;;;6.57;67.78;99032.13;2028237;79;20349;-75
2021/03/12 07:47:27;;;;;;;5.55;1.51;;;;;;;6.66;68.22;99041.66;2028411;77;22358;-77
2021/03/12 07:50:33;;;;;;;4.44;0.74;;;;;;;6.73;68.50;99034.78;2030076;79;20818;-72
2021/03/12 07:53:44;;;;;;;5.75;0.99;;;;;;;6.75;68.45;99041.69;2030745;79;20334;-73
2021/03/12 07:56:53;;;;;;;5.88;1.17;;;;;;;6.88;68.54;99030.56;2030498;79;20795;-75
2021/03/12 07:59:55;;;;;;;6.36;1.59;;;;;;;6.98;68.37;99040.06;2030510;79;20854;-77
2021/03/12 08:02:59;;;;;;;3.61;0.99;;;;;;;7.02;67.07;99040.09;2029660;77;23304;-76
2021/03/12 08:06:00;;;;;;;6.24;2.19;;;;;;;7.06;67.69;99041.84;2031167;79;20343;-74
2021/03/12 08:09:23;;;;;;;4.94;1.49;;;;;;;7.07;67.44;99051.31;2030254;79;20325;-74
2021/03/12 08:12:32;;;;;;;4.28;0.93;;;;;;;7.10;67.74;99033.25;2030846;79;20354;-73
2021/03/12 08:15:34;;;;;;;4.80;1.08;;;;;;;7.14;67.81;99045.28;2029537;77;22138;-73
2021/03/12 08:18:36;;;;;;;11.24;0.96;;;;;;;7.15;67.66;99044.44;2030077;79;21185;-73
2021/03/12 08:21:38;;;;;;;8.88;1.30;;;;;;;7.18;67.97;99052.19;2030598;79;20810;-72
2021/03/12 08:24:50;;;;;;;5.00;1.06;;;;;;;7.26;68.21;99048.78;2033055;79;20342;-75
2021/03/12 08:27:52;;;;;;;6.38;0.98;;;;;;;7.44;67.84;99050.56;2030289;79;20783;-73
2021/03/12 08:30:59;;;;;;;6.20;1.09;;;;;;;7.52;67.24;99048.84;2029951;77;22068;-73
2021/03/12 08:34:39;;;;;;;8.71;1.19;;;;;;;7.68;67.17;99060.06;2029559;79;20842;-72
2021/03/12 08:37:41;;;;;;;5.93;0.81;;;;;;;7.73;65.77;99060.97;2030348;79;21272;-73
2021/03/12 08:40:54;;;;;;;12.10;1.73;;;;;;;7.94;66.38;99054.09;2030319;79;20341;-73
2021/03/12 08:43:56;;;;;;;6.59;0.90;;;;;;;8.29;64.80;99047.19;2030329;79;20434;-73
2021/03/12 08:46:58;;;;;;;7.30;1.45;;;;;;;8.50;64.60;99046.34;2030400;77;20387;-73
2021/03/12 08:50:00;;;;;;;6.54;1.02;;;;;;;8.82;64.57;99045.41;2030359;79;20339;-73
2021/03/12 08:53:07;;;;;;;8.89;1.34;;;;;;;9.08;64.88;99038.41;2029853;79;20325;-74
2021/03/12 08:56:09;;;;;;;4.44;1.38;;;;;;;9.24;64.38;99031.44;2030783;79;20409;-74
2021/03/12 08:59:11;;;;;;;11.35;1.56;;;;;;;9.30;62.58;99021.88;2030268;79;20221;-73
2021/03/12 09:02:23;;;;;;;9.44;1.77;;;;;;;9.29;61.77;99022.75;2029612;77;20990;-74
2021/03/12 09:05:27;;;;;;;6.30;1.49;;;;;;;9.26;61.61;99007.22;2029563;79;20202;-73
2021/03/12 09:08:30;;;;;;;6.65;1.14;;;;;;;9.37;61.57;99012.38;2029970;79;21142;-74
2021/03/12 09:11:32;;;;;;;8.85;1.38;;;;;;;9.59;60.18;99021.72;2029784;79;20323;-72
2021/03/12 09:14:40;;;;;;;6.00;1.27;;;;;;;9.79;58.52;99023.31;2029513;79;20266;-75
2021/03/12 09:17:42;;;;;;;11.37;1.92;;;;;;;9.99;57.41;99035.25;2029307;77;22395;-73
2021/03/12 09:20:49;;;;;;;9.46;1.21;;;;;;;9.91;57.25;99025.81;2028294;79;20261;-74
2021/03/12 09:23:59;;;;;;;4.28;0.91;;;;;;;9.72;55.56;99022.50;2028002;79;20223;-73
2021/03/12 09:27:01;;;;;;;9.10;1.75;;;;;;;9.52;57.33;99035.59;2028328;79;20223;-73
2021/03/12 09:30:03;;;;;;;5.51;1.10;;;;;;;9.13;58.71;99028.00;2027834;79;20230;-72
2021/03/12 09:33:07;;;;;;;9.73;1.35;;;;;;;9.04;60.29;99024.59;2028033;77;20314;-73
2021/03/12 09:36:44;;;;;;;7.28;1.11;;;;;;;9.30;60.44;99019.28;2028942;79;20287;-72
2021/03/12 09:39:47;;;;;;;12.31;1.44;;;;;;;9.46;58.73;99024.38;2028587;79;20744;-73
2021/03/12 09:42:50;;;;;;;6.26;1.05;;;;;;;9.49;58.18;99014.88;2029428;79;20283;-72
2021/03/12 09:45:52;;;;;;;6.19;1.01;;;;;;;9.36;57.84;99014.09;2027454;77;20789;-73
2021/03/12 09:51:56;;;;;;;4.38;0.69;;;;;;;8.97;58.97;99022.88;2065326;77;20214;-75
2021/03/12 09:54:58;;;;;;;3.36;0.70;;;;;;;8.85;59.83;99015.19;2056387;78;20202;-73
2021/03/12 09:58:06;;;;;;;5.91;0.98;;;;;;;9.25;60.73;99021.06;2054789;78;20420;-73
2021/03/12 10:01:13;;;;;;;7.63;1.10;;;;;;;9.82;60.06;99006.00;2048812;77;22207;-74
2021/03/12 10:04:42;;;;;;;7.72;0.84;;;;;;;9.69;58.59;99000.06;2039748;79;20398;-73
2021/03/12 10:07:49;;;;;;;6.78;1.76;;;;;;;9.70;58.82;98995.75;2039430;79;20192;-72
2021/03/12 10:10:56;;;;;;;8.96;1.30;;;;;;;9.74;58.46;98997.44;2039129;79;20208;-73
2021/03/12 10:14:38;;;;;;;6.71;1.11;;;;;;;9.74;57.34;98994.84;2039877;79;20335;-74
2021/03/12 10:17:42;;;;;;;4.03;0.82;;;;;;;9.66;57.43;98988.84;2043014;76;22408;-72
2021/03/12 10:20:45;;;;;;;4.59;0.99;;;;;;;9.38;54.99;98996.81;2043284;79;20223;-73
2021/03/12 10:23:50;;;;;;;7.60;1.09;;;;;;;9.19;54.94;98995.19;2042409;79;20867;-72
2021/03/12 10:26:52;;;;;;;5.35;1.40;;;;;;;8.98;55.53;98992.72;2041559;79;20295;-73
2021/03/12 10:29:53;;;;;;;8.40;1.90;;;;;;;8.78;55.31;98985.84;2043104;79;20423;-72
2021/03/12 10:32:59;;;;;;;6.63;1.21;;;;;;;8.90;56.85;98995.31;2036817;76;21529;-73
2021/03/12 10:36:04;;;;;;;5.20;1.02;;;;;;;9.13;56.75;98984.84;2037405;79;20885;-73
2021/03/12 10:39:07;;;;;;;5.60;1.01;;;;;;;9.39;56.24;98992.47;2037101;79;20226;-73
2021/03/12 10:42:08;;;;;;;5.86;1.27;;;;;;;9.44;55.75;98977.75;2037932;79;20169;-72
2021/03/12 10:45:21;;;;;;;6.29;1.61;;;;;;;9.46;55.25;98990.69;2037726;79;20230;-72
2021/03/12 10:48:26;;;;;;;5.76;1.29;;;;;;;9.49;55.27;98970.81;2038475;79;20306;-73
2021/03/12 10:51:40;;;;;;;8.69;1.49;;;;;;;9.47;56.12;98979.47;2037820;79;20216;-73
2021/03/12 10:54:42;;;;;;;9.76;1.64;;;;;;;9.77;54.76;98983.59;2035646;79;20249;-74
2021/03/12 10:57:47;;;;;;;7.36;0.89;;;;;;;9.99;54.26;98964.38;2037328;79;20300;-75
2021/03/12 11:01:08;;;;;;;7.07;1.23;;;;;;;10.17;54.42;98968.53;2037328;77;20286;-74
2021/03/12 11:04:13;;;;;;;8.23;1.11;;;;;;;10.51;54.52;98959.56;2035117;79;20325;-75
2021/03/12 11:07:15;;;;;;;6.57;0.99;;;;;;;10.66;52.66;98963.72;2035048;79;20218;-75
2021/03/12 11:10:20;;;;;;;10.56;1.52;;;;;;;10.58;52.06;98953.41;2034855;79;20311;-75
2021/03/12 11:13:22;;;;;;;3.53;0.98;;;;;;;10.49;51.66;98958.72;2034039;79;20873;-74
2021/03/12 11:16:24;;;;;;;6.53;1.31;;;;;;;10.48;52.16;98945.75;2034141;77;20188;-75
2021/03/12 11:19:26;;;;;;;7.18;1.73;;;;;;;10.39;51.94;98951.88;2034241;79;20165;-75
2021/03/12 11:22:28;;;;;;;10.63;1.59;;;;;;;10.25;52.63;98946.88;2035003;79;20298;-72
2021/03/12 11:25:31;;;;;;;19.33;3.25;;;;;;;10.09;52.88;98947.00;2036965;79;20942;-72
2021/03/12 11:28:33;;;;;;;7.32;1.30;;;;;;;9.88;52.82;98945.47;2036601;79;20293;-72
2021/03/12 11:31:35;;;;;;;8.66;2.70;;;;;;;9.71;53.29;98935.25;2037807;76;22275;-72
2021/03/12 11:34:37;;;;;;;7.45;1.44;;;;;;;9.80;53.84;98926.50;2041608;79;20292;-72
2021/03/12 11:37:40;;;;;;;6.96;1.40;;;;;;;9.83;53.44;98932.53;2044823;79;20208;-72
2021/03/12 11:40:42;;;;;;;9.29;1.41;;;;;;;9.98;53.07;98928.94;2041859;79;20260;-72
2021/03/12 11:43:44;;;;;;;6.72;1.11;;;;;;;10.25;51.39;98920.91;2041067;79;20172;-72
2021/03/12 11:46:46;;;;;;;5.80;1.13;;;;;;;10.59;50.87;98920.50;2039253;76;20830;-72
2021/03/12 11:49:49;;;;;;;10.63;1.29;;;;;;;11.00;49.01;98926.94;2040398;79;20232;-74
2021/03/12 11:52:50;;;;;;;6.56;0.99;;;;;;;11.18;47.96;98924.94;2040283;79;20637;-75
2021/03/12 11:55:52;;;;;;;6.51;1.08;;;;;;;11.27;48.87;98923.06;2039638;79;20272;-72
2021/03/12 11:58:54;;;;;;;7.46;1.20;;;;;;;11.33;49.28;98918.66;2040812;79;20204;-73
2021/03/12 12:01:57;;;;;;;5.91;0.85;;;;;;;11.70;49.00;98905.06;2038320;77;31580;-72
2021/03/12 12:05:03;;;;;;;9.46;1.31;;;;;;;12.21;46.90;98907.66;2036676;79;20200;-73
2021/03/12 12:08:05;;;;;;;5.09;0.96;;;;;;;12.20;46.27;98903.31;2037301;79;20218;-72
2021/03/12 12:11:07;;;;;;;6.70;1.42;;;;;;;11.98;46.31;98902.88;2036522;79;20195;-73
2021/03/12 12:14:09;;;;;;;6.28;1.13;;;;;;;11.75;45.36;98895.44;2036404;79;20623;-73
2021/03/12 12:17:11;;;;;;;3.59;0.93;;;;;;;12.23;47.01;98895.50;2036483;76;20310;-72
2021/03/12 12:20:15;;;;;;;7.75;1.21;;;;;;;12.55;44.60;98900.91;2035379;79;20172;-72
2021/03/12 12:23:17;;;;;;;5.44;1.13;;;;;;;12.43;43.24;98892.50;2034648;79;20265;-73
2021/03/12 12:26:18;;;;;;;8.36;1.21;;;;;;;12.18;44.71;98884.28;2035324;79;20197;-73
2021/03/12 12:29:20;;;;;;;4.75;1.02;;;;;;;12.19;44.72;98889.47;2035669;79;20589;-73
2021/03/12 12:32:26;;;;;;;8.50;1.42;;;;;;;12.31;44.77;98870.16;2033997;77;20931;-73
2021/03/12 12:35:30;;;;;;;9.13;1.23;;;;;;;11.97;44.91;98877.75;2034573;79;20207;-73
2021/03/12 12:38:31;;;;;;;10.89;1.54;;;;;;;11.53;45.56;98874.16;2034625;79;20216;-73
2021/03/12 12:41:39;;;;;;;6.06;1.08;;;;;;;11.05;45.47;98883.56;2034569;79;20683;-73
2021/03/12 12:44:41;;;;;;;5.19;1.14;;;;;;;10.80;46.76;98860.53;2034873;79;20236;-72
2021/03/12 12:47:43;;;;;;;6.11;1.13;;;;;;;10.60;47.68;98878.13;2032468;76;20642;-72
2021/03/12 12:50:45;;;;;;;7.20;1.29;;;;;;;10.47;48.39;98871.34;2032822;79;20402;-72
2021/03/12 12:53:46;;;;;;;4.07;1.01;;;;;;;10.31;49.08;98862.03;2033276;79;20194;-72
2021/03/12 12:56:49;;;;;;;6.29;1.23;;;;;;;10.18;49.18;98863.88;2034239;79;20197;-73
2021/03/12 12:59:52;;;;;;;4.64;0.93;;;;;;;10.16;49.36;98861.31;2034387;79;20225;-73
2021/03/12 13:02:55;;;;;;;4.43;1.00;;;;;;;10.11;49.98;98847.53;2032002;77;22037;-74
2021/03/12 13:05:57;;;;;;;4.19;0.88;;;;;;;10.20;49.16;98849.16;2033561;79;20181;-74
2021/03/12 13:08:58;;;;;;;8.39;1.13;;;;;;;10.34;48.46;98843.84;2034347;79;20177;-73
2021/03/12 13:12:00;;;;;;;7.32;1.20;;;;;;;10.44;48.23;98835.94;2034710;79;20280;-73
2021/03/12 13:15:04;;;;;;;9.13;1.48;;;;;;;10.44;48.17;98838.53;2035814;79;20343;-73
2021/03/12 13:18:06;;;;;;;4.90;0.95;;;;;;;10.51;48.34;98821.97;2034920;76;20246;-73
2021/03/12 13:21:09;;;;;;;4.65;1.54;;;;;;;10.80;47.51;98813.78;2033719;79;20328;-73
2021/03/12 13:24:11;;;;;;;5.51;0.98;;;;;;;11.07;46.62;98811.66;2033443;79;20169;-73
2021/03/12 13:27:14;;;;;;;9.21;1.10;;;;;;;11.63;45.10;98805.47;2034219;79;20206;-73
2021/03/12 13:30:20;;;;;;;4.39;0.80;;;;;;;12.02;44.68;98805.66;2032242;76;20467;-74
2021/03/12 13:33:22;;;;;;;4.36;0.88;;;;;;;12.09;44.22;98789.91;2033489;79;20185;-73
2021/03/12 13:36:23;;;;;;;6.85;1.00;;;;;;;12.14;43.80;98799.34;2033556;79;20193;-74
2021/03/12 13:39:25;;;;;;;7.82;1.06;;;;;;;12.20;43.17;98784.47;2033207;79;20173;-75
2021/03/12 13:42:28;;;;;;;5.01;0.93;;;;;;;12.44;43.54;98783.09;2033560;79;20636;-72
2021/03/12 13:45:31;;;;;;;3.16;0.76;;;;;;;12.43;40.35;98807.44;2032067;76;45942;-74
2021/03/12 13:48:33;;;;;;;5.35;1.16;;;;;;;12.55;40.89;98754.19;2033611;79;20190;-75
2021/03/12 13:51:35;;;;;;;8.45;0.90;;;;;;;12.56;40.58;98754.16;2033274;79;20304;-74
2021/03/12 13:54:36;;;;;;;5.96;1.11;;;;;;;12.46;40.30;98762.22;2033507;79;20181;-74
2021/03/12 13:57:38;;;;;;;7.61;1.44;;;;;;;12.18;41.54;98749.81;2033263;79;20927;-74
2021/03/12 14:00:43;;;;;;;4.30;0.80;;;;;;;12.02;42.37;98743.19;2033602;76;20732;-74
2021/03/12 14:03:45;;;;;;;6.16;1.63;;;;;;;11.90;43.51;98741.72;2033370;79;20232;-74
2021/03/12 14:06:47;;;;;;;3.49;0.73;;;;;;;11.67;43.33;98747.34;2033612;79;20646;-74
2021/03/12 14:09:49;;;;;;;4.36;1.00;;;;;;;11.66;44.45;98735.22;2034202;79;20189;-73
2021/03/12 14:12:51;;;;;;;8.59;1.58;;;;;;;11.47;44.28;98741.66;2034554;79;20244;-74
2021/03/12 14:15:53;;;;;;;3.40;0.91;;;;;;;11.43;45.38;98738.25;2034416;76;20818;-73
2021/03/12 14:18:54;;;;;;;8.63;1.42;;;;;;;11.77;44.78;98725.47;2034357;79;20177;-73
2021/03/12 14:21:56;;;;;;;6.24;1.19;;;;;;;11.86;44.58;98721.00;2033140;79;20181;-73
2021/03/12 14:24:59;;;;;;;6.50;1.04;;;;;;;11.84;44.48;98735.78;2032672;79;20363;-72
2021/03/12 14:28:00;;;;;;;4.49;1.20;;;;;;;12.00;45.83;98732.81;2033313;79;20807;-76
2021/03/12 14:31:03;;;;;;;3.97;1.11;;;;;;;12.15;44.65;98725.59;2032129;77;67167;-75
2021/03/12 14:34:05;;;;;;;4.31;0.93;;;;;;;12.38;43.79;98728.53;2032870;79;21272;-74
2021/03/12 14:37:08;;;;;;;4.39;0.89;;;;;;;12.37;43.21;98722.47;2033560;79;20277;-75